Time;durP1;ratioP1;P1;durP2;ratioP2;P2;SDS_P1;SDS_P2;PMS_P1;PMS_P2;Temp;Humidity;BMP_temperature;BMP_pressure;BME280_temperature;BME280_humidity;BME280_pressure;Samples;Min_cycle;Max_cycle;Signal;HPM_P1;HPM_P2
2022/10/19 00:01:19;;;;;;;3.40;1.90;;;;;;;13.53;59.57;99536.75;103199;1304;110732;-83
2022/10/19 00:03:54;;;;;;;4.30;1.70;;;;;;;13.52;59.66;99540.69;103444;1304;96589;-83
2022/10/19 00:06:31;;;;;;;2.50;1.40;;;;;;;13.49;59.61;99541.29;103306;1298;106201;-83
2022/10/19 00:09:18;;;;;;;2.90;1.90;;;;;;;13.49;59.86;99542.77;103123;1306;97992;-84
2022/10/19 00:11:50;;;;;;;3.50;2.00;;;;;;;13.47;59.91;99548.39;103337;1302;95879;-84
2022/10/19 00:14:22;;;;;;;2.60;1.90;;;;;;;13.47;59.94;99548.78;103661;1304;111168;-84
2022/10/19 00:16:51;;;;;;;4.50;2.10;;;;;;;13.45;59.98;99554.14;103499;1298;97661;-84
2022/10/19 00:19:23;;;;;;;3.40;2.10;;;;;;;13.42;60.15;99560.02;103176;1297;107533;-85
2022/10/19 00:21:52;;;;;;;3.50;2.20;;;;;;;13.38;59.99;99555.79;103189;1303;95193;-84
2022/10/19 00:24:21;;;;;;;7.60;3.30;;;;;;;13.34;60.12;99552.74;103184;1303;95212;-83
2022/10/19 00:26:49;;;;;;;5.60;2.50;;;;;;;13.32;60.31;99556.30;103218;1303;111168;-82
2022/10/19 00:29:18;;;;;;;3.90;2.80;;;;;;;13.27;60.43;99556.13;103146;1296;96600;-82
2022/10/19 00:31:51;;;;;;;4.40;2.60;;;;;;;13.22;60.66;99558.98;103005;1300;107414;-83
2022/10/19 00:34:20;;;;;;;3.40;2.60;;;;;;;13.15;60.80;99558.13;103184;1311;97759;-82
2022/10/19 00:36:47;;;;;;;4.60;2.60;;;;;;;13.10;60.86;99558.47;103179;1298;98547;-82
2022/10/19 00:39:18;;;;;;;4.00;2.60;;;;;;;13.08;61.04;99551.00;103173;1297;110892;-82
2022/10/19 00:41:46;;;;;;;6.10;2.90;;;;;;;13.06;61.23;99556.44;103219;1310;97812;-81
2022/10/19 00:44:14;;;;;;;7.20;3.20;;;;;;;13.06;61.09;99556.48;103228;1304;106456;-83
2022/10/19 00:46:49;;;;;;;10.30;3.30;;;;;;;13.03;61.13;99551.34;103185;1303;97974;-84
2022/10/19 00:49:28;;;;;;;6.50;2.90;;;;;;;13.01;61.34;99547.95;103148;1304;97892;-84
2022/10/19 00:52:02;;;;;;;6.70;3.00;;;;;;;12.99;61.44;99552.39;103220;1298;111128;-83
2022/10/19 00:54:34;;;;;;;7.90;2.80;;;;;;;12.95;61.47;99549.96;103212;1304;95775;-82
2022/10/19 00:57:03;;;;;;;6.20;2.80;;;;;;;12.94;61.46;99546.48;103158;1305;107449;-82
2022/10/19 00:59:33;;;;;;;7.10;3.10;;;;;;;12.90;61.37;99544.98;103008;1299;97878;-83
2022/10/19 01:02:04;;;;;;;6.90;3.10;;;;;;;12.85;61.54;99542.17;103223;1298;98034;-83
2022/10/19 01:04:35;;;;;;;6.90;3.20;;;;;;;12.81;61.74;99541.27;103254;1306;111219;-82
2022/10/19 01:07:06;;;;;;;5.20;3.20;;;;;;;12.78;61.96;99541.11;103124;1297;97915;-82
2022/10/19 01:09:34;;;;;;;5.60;3.50;;;;;;;12.75;61.80;99540.27;103229;1297;107546;-84
2022/10/19 01:12:22;;;;;;;6.20;3.80;;;;;;;12.72;61.87;99543.29;103042;1307;98092;-85
2022/10/19 01:15:16;;;;;;;9.10;3.80;;;;;;;12.71;62.10;99543.05;103183;1298;95891;-84
2022/10/19 01:18:02;;;;;;;;;;;;;;;12.70;62.20;99539.05;103207;1306;111096;-84
2022/10/19 01:20:49;;;;;;;9.10;3.80;;;;;;;12.67;62.28;99534.79;103198;1305;97940;-83
2022/10/19 01:23:39;;;;;;;9.40;3.80;;;;;;;12.68;62.38;99528.46;103050;1307;107248;-84
2022/10/19 01:26:21;;;;;;;8.20;3.80;;;;;;;12.67;62.50;99527.83;103184;1297;97886;-83
2022/10/19 01:29:14;;;;;;;8.90;3.70;;;;;;;12.65;62.40;99524.08;103194;1303;96681;-82
2022/10/19 01:31:56;;;;;;;7.10;4.00;;;;;;;12.62;62.42;99518.95;103153;1304;111126;-82
2022/10/19 01:34:37;;;;;;;9.30;4.10;;;;;;;12.59;62.64;99516.50;103179;1304;98125;-82
2022/10/19 01:37:35;;;;;;;6.60;3.50;;;;;;;12.57;62.58;99516.10;103074;1296;107672;-82
2022/10/19 01:40:30;;;;;;;7.80;3.90;;;;;;;12.57;62.65;99509.91;103196;1298;97940;-83
2022/10/19 01:43:10;;;;;;;;;;;;;;;12.58;62.71;99511.99;103232;1298;96500;-83
2022/10/19 01:46:02;;;;;;;4.80;2.60;;;;;;;12.56;63.59;99516.02;103201;1299;111167;-83
2022/10/19 01:48:34;;;;;;;6.50;3.00;;;;;;;12.57;63.28;99522.17;103196;1303;98417;-83
2022/10/19 01:51:08;;;;;;;3.70;2.80;;;;;;;12.57;62.99;99516.65;103179;1298;107473;-83
2022/10/19 01:53:43;;;;;;;6.60;2.80;;;;;;;12.59;63.10;99508.54;103176;1290;97900;-84
2022/10/19 01:56:12;;;;;;;;;;;;;;;12.60;63.26;99497.08;103229;1304;98051;-84
2022/10/19 01:58:45;;;;;;;4.40;2.30;;;;;;;12.59;63.46;99504.98;103197;1296;111201;-81
2022/10/19 02:01:18;;;;;;;5.30;3.00;;;;;;;12.57;63.18;99511.48;103081;1304;97833;-81
2022/10/19 02:03:47;;;;;;;4.20;2.70;;;;;;;12.54;63.26;99516.69;103124;1304;107703;-81
2022/10/19 02:06:17;;;;;;;6.00;3.20;;;;;;;12.47;63.27;99510.40;103193;1297;95235;-83
2022/10/19 02:08:51;;;;;;;9.00;3.40;;;;;;;12.43;63.23;99508.58;103223;1297;97924;-85
2022/10/19 02:11:22;;;;;;;5.00;2.80;;;;;;;12.40;63.45;99508.68;103134;1298;111465;-83
2022/10/19 02:13:58;;;;;;;6.70;3.70;;;;;;;12.38;63.25;99506.34;103215;1298;98720;-82
2022/10/19 02:16:34;;;;;;;6.60;3.70;;;;;;;12.34;63.64;99501.63;103207;1304;107157;-83
2022/10/19 02:19:04;;;;;;;6.30;3.30;;;;;;;12.31;63.56;99509.63;103187;1303;97880;-82
2022/10/19 02:21:32;;;;;;;6.80;3.90;;;;;;;12.26;64.03;99511.60;103222;1303;97983;-83
2022/10/19 02:23:59;;;;;;;9.40;4.60;;;;;;;12.24;63.73;99512.98;103210;1304;111103;-83
2022/10/19 02:26:28;;;;;;;9.10;4.90;;;;;;;12.21;63.82;99508.39;103053;1301;98104;-81
2022/10/19 02:28:57;;;;;;;12.30;6.10;;;;;;;12.20;63.75;99504.08;103013;1297;107111;-82
2022/10/19 02:31:26;;;;;;;11.20;5.00;;;;;;;12.19;64.14;99507.47;103102;1297;97898;-79
2022/10/19 02:33:53;;;;;;;11.50;5.60;;;;;;;12.19;64.31;99505.13;103156;1299;97875;-79
2022/10/19 02:36:21;;;;;;;15.00;6.70;;;;;;;12.19;63.95;99502.15;103181;1297;111737;-81
2022/10/19 02:38:51;;;;;;;14.90;7.20;;;;;;;12.17;64.24;99500.53;103188;1302;97704;-80
2022/10/19 02:41:41;;;;;;;15.90;7.80;;;;;;;12.17;64.84;99490.95;102942;1294;107593;-80
2022/10/19 02:44:20;;;;;;;15.30;7.50;;;;;;;12.18;64.52;99482.54;103132;1304;97975;-81
2022/10/19 02:47:02;;;;;;;16.00;8.20;;;;;;;12.19;64.40;99479.79;103133;1304;97753;-81
2022/10/19 02:49:34;;;;;;;16.50;8.00;;;;;;;12.20;64.53;99471.87;103139;1298;110771;-82
2022/10/19 02:52:08;;;;;;;17.00;8.60;;;;;;;12.21;64.39;99479.96;103149;1298;97918;-81
2022/10/19 02:54:38;;;;;;;15.80;8.00;;;;;;;12.23;64.53;99486.58;103055;1299;107654;-82
2022/10/19 02:57:19;;;;;;;19.90;9.50;;;;;;;12.23;64.73;99485.18;103037;1310;97907;-81
2022/10/19 02:59:48;;;;;;;17.20;8.80;;;;;;;12.23;64.79;99491.20;103009;1300;96479;-80
2022/10/19 03:02:17;;;;;;;18.50;8.80;;;;;;;12.24;64.65;99493.45;102996;1298;110981;-83
2022/10/19 03:04:46;;;;;;;18.40;8.70;;;;;;;12.24;64.70;99493.10;103179;1303;97974;-82
2022/10/19 03:07:20;;;;;;;17.60;8.60;;;;;;;12.24;64.93;99496.13;103195;1301;107146;-82
2022/10/19 03:09:48;;;;;;;17.60;8.40;;;;;;;12.26;64.91;99495.13;103186;1296;98519;-84
2022/10/19 03:12:17;;;;;;;15.90;7.80;;;;;;;12.27;64.96;99498.91;103236;1290;95211;-81
2022/10/19 03:14:45;;;;;;;18.50;9.30;;;;;;;12.28;64.78;99500.64;103150;1300;111166;-84
2022/10/19 03:17:15;;;;;;;16.90;8.40;;;;;;;12.27;65.48;99498.05;103059;1306;98041;-85
2022/10/19 03:19:43;;;;;;;17.40;8.20;;;;;;;12.25;65.10;99496.73;103175;1297;106207;-86
2022/10/19 03:22:13;;;;;;;16.30;7.90;;;;;;;12.25;65.17;99498.20;103094;1297;96718;-83
2022/10/19 03:24:41;;;;;;;14.90;7.90;;;;;;;12.25;66.06;99497.33;103068;1304;97955;-81
2022/10/19 03:27:09;;;;;;;17.30;8.10;;;;;;;12.22;65.72;99496.08;103042;1304;110857;-80
2022/10/19 03:29:37;;;;;;;16.30;8.30;;;;;;;12.21;65.52;99492.08;103036;1304;98027;-82
2022/10/19 03:32:05;;;;;;;18.70;8.70;;;;;;;12.20;65.44;99492.83;103130;1304;107344;-82
2022/10/19 03:34:33;;;;;;;13.70;7.30;;;;;;;12.19;65.37;99492.59;103090;1297;97883;-81
2022/10/19 03:37:01;;;;;;;15.00;7.50;;;;;;;12.18;65.41;99488.35;103146;1303;97928;-80
2022/10/19 03:39:31;;;;;;;14.60;7.50;;;;;;;12.18;65.68;99480.33;103103;1290;111896;-81
2022/10/19 03:42:00;;;;;;;16.40;8.00;;;;;;;12.19;65.57;99481.89;103134;1296;97902;-81
2022/10/19 03:44:27;;;;;;;15.70;8.40;;;;;;;12.20;65.57;99476.85;103087;1297;106456;-80
2022/10/19 03:46:57;;;;;;;14.40;7.50;;;;;;;12.19;65.52;99473.69;103018;1305;97869;-81
2022/10/19 03:49:25;;;;;;;15.10;7.70;;;;;;;12.19;65.69;99467.30;103010;1297;95936;-81
2022/10/19 03:51:52;;;;;;;16.10;8.10;;;;;;;12.19;65.70;99463.20;103064;1304;111282;-81
2022/10/19 03:54:20;;;;;;;21.70;8.40;;;;;;;12.20;65.85;99461.58;102896;1304;97981;-81
2022/10/19 03:56:54;;;;;;;;;;;;;;;12.19;65.85;99461.45;103075;1291;107529;-80
2022/10/19 03:59:23;;;;;;;15.20;7.20;;;;;;;12.17;66.00;99457.37;103126;1298;97985;-82
2022/10/19 04:01:52;;;;;;;17.20;8.60;;;;;;;12.17;66.13;99456.75;103158;1296;95210;-82
2022/10/19 04:04:21;;;;;;;15.60;8.10;;;;;;;12.17;66.14;99459.98;103125;1296;111140;-82
2022/10/19 04:06:52;;;;;;;21.10;9.20;;;;;;;12.16;66.14;99462.94;103168;1298;97872;-82
2022/10/19 04:09:22;;;;;;;18.10;9.80;;;;;;;12.15;65.98;99465.45;103156;1303;107209;-83
2022/10/19 04:11:50;;;;;;;19.70;10.10;;;;;;;12.13;66.09;99468.23;103143;1304;97750;-82
2022/10/19 04:14:20;;;;;;;19.00;10.70;;;;;;;12.13;65.85;99466.02;103180;1297;97878;-81
2022/10/19 04:17:06;;;;;;;20.30;10.40;;;;;;;12.09;66.18;99468.05;103140;1296;111187;-83
2022/10/19 04:19:33;;;;;;;19.30;9.30;;;;;;;12.08;66.35;99462.61;103066;1304;97889;-83
2022/10/19 04:22:02;;;;;;;19.80;10.50;;;;;;;12.08;66.39;99459.27;103242;1304;107453;-83
2022/10/19 04:24:31;;;;;;;18.90;9.20;;;;;;;12.09;66.63;99457.38;103151;1301;95831;-85
2022/10/19 04:27:00;;;;;;;19.70;9.60;;;;;;;12.09;66.68;99456.67;103066;1296;97976;-82
2022/10/19 04:29:28;;;;;;;19.00;10.00;;;;;;;12.09;66.54;99454.06;103166;1305;111181;-83
2022/10/19 04:31:58;;;;;;;18.40;9.70;;;;;;;12.09;66.52;99455.47;103177;1304;97740;-82
2022/10/19 04:34:27;;;;;;;19.90;9.60;;;;;;;12.08;66.57;99451.91;103146;1304;107550;-83
2022/10/19 04:36:58;;;;;;;18.90;10.50;;;;;;;12.07;66.46;99452.91;103126;1305;98125;-81
2022/10/19 04:39:26;;;;;;;17.50;8.90;;;;;;;12.05;66.95;99452.81;103005;1304;96585;-81
2022/10/19 04:41:54;;;;;;;18.60;9.20;;;;;;;12.04;67.29;99456.33;103060;1304;110616;-80
2022/10/19 04:44:22;;;;;;;19.10;10.30;;;;;;;12.02;66.91;99452.94;102908;1300;126508;-80
2022/10/19 04:46:56;;;;;;;18.70;9.20;;;;;;;12.00;66.95;99451.10;103018;1304;107175;-80
2022/10/19 04:49:24;;;;;;;16.90;8.80;;;;;;;11.97;67.09;99449.37;103014;1304;97005;-78
2022/10/19 04:51:52;;;;;;;17.90;9.30;;;;;;;11.93;66.87;99448.70;102957;1301;98047;-82
2022/10/19 04:54:20;;;;;;;20.90;9.40;;;;;;;11.89;66.83;99448.98;103193;1290;110988;-80
2022/10/19 04:56:49;;;;;;;18.60;9.70;;;;;;;11.84;66.95;99446.36;103126;1300;97958;-82
2022/10/19 04:59:17;;;;;;;17.00;8.80;;;;;;;11.80;67.04;99444.17;103096;1298;107421;-80
2022/10/19 05:01:44;;;;;;;19.80;10.00;;;;;;;11.78;68.20;99439.69;103130;1303;98559;-84
2022/10/19 05:04:14;;;;;;;19.80;10.40;;;;;;;11.74;67.28;99434.77;103233;1298;97950;-77
2022/10/19 05:06:44;;;;;;;21.00;10.30;;;;;;;11.72;67.28;99437.02;103096;1303;111224;-79
2022/10/19 05:09:13;;;;;;;20.00;10.50;;;;;;;11.70;67.35;99439.65;102982;1304;97975;-77
2022/10/19 05:11:40;;;;;;;17.70;9.60;;;;;;;11.69;67.29;99441.20;103016;1296;107519;-83
2022/10/19 05:14:08;;;;;;;19.00;10.10;;;;;;;11.67;67.18;99440.98;103087;1301;96181;-81
2022/10/19 05:16:38;;;;;;;21.20;10.50;;;;;;;11.65;67.39;99441.83;103039;1300;95319;-80
2022/10/19 05:19:06;;;;;;;20.20;9.90;;;;;;;11.64;67.43;99440.98;102975;1304;111847;-80
2022/10/19 05:21:34;;;;;;;21.40;10.80;;;;;;;11.64;67.42;99444.05;103194;1297;97896;-80
2022/10/19 05:24:02;;;;;;;21.60;10.70;;;;;;;11.63;67.54;99445.52;103078;1288;107635;-81
2022/10/19 05:26:31;;;;;;;22.00;10.90;;;;;;;11.63;67.42;99443.70;103077;1304;97812;-80
2022/10/19 05:29:01;;;;;;;22.00;11.20;;;;;;;11.63;67.36;99447.45;103034;1296;97862;-79
2022/10/19 05:31:34;;;;;;;21.20;10.40;;;;;;;11.59;67.63;99448.06;103002;1298;110508;-80
2022/10/19 05:34:03;;;;;;;20.80;10.40;;;;;;;11.56;67.50;99447.63;103109;1301;98045;-77
2022/10/19 05:36:36;;;;;;;18.30;10.00;;;;;;;11.52;67.43;99443.28;103078;1299;107781;-82
2022/10/19 05:39:16;;;;;;;20.60;10.10;;;;;;;11.48;67.63;99445.48;103888;1297;97926;-81
2022/10/19 05:41:46;;;;;;;19.60;10.50;;;;;;;11.45;67.48;99443.70;103163;1302;97901;-79
2022/10/19 05:44:18;;;;;;;20.80;10.70;;;;;;;11.43;67.54;99435.70;103553;1285;110870;-81
2022/10/19 05:46:50;;;;;;;22.50;11.00;;;;;;;11.44;67.85;99438.30;103109;1297;97913;-81
2022/10/19 05:49:20;;;;;;;20.20;8.50;;;;;;;11.45;68.02;99438.79;104843;1289;107324;-80
2022/10/19 05:51:49;;;;;;;19.60;10.20;;;;;;;11.45;67.98;99440.16;103775;1307;97998;-81
2022/10/19 05:54:18;;;;;;;20.60;9.50;;;;;;;11.46;67.85;99436.23;103356;1296;98617;-79
2022/10/19 05:56:50;;;;;;;17.50;9.10;;;;;;;11.47;68.14;99439.88;103010;1297;111178;-80
2022/10/19 05:59:21;;;;;;;21.70;10.00;;;;;;;11.46;68.00;99443.67;103049;1282;97903;-81
2022/10/19 06:01:50;;;;;;;21.30;10.20;;;;;;;11.46;67.98;99448.80;102998;1302;107646;-80
2022/10/19 06:04:18;;;;;;;19.20;10.00;;;;;;;11.46;67.98;99452.55;103059;1304;95145;-80
2022/10/19 06:06:46;;;;;;;21.50;10.10;;;;;;;11.45;68.03;99456.66;103066;1304;95925;-80
2022/10/19 06:09:14;;;;;;;22.40;10.00;;;;;;;11.44;68.03;99452.13;103106;1296;111045;-81
2022/10/19 06:11:41;;;;;;;17.10;8.90;;;;;;;11.44;68.12;99455.86;103082;1300;97939;-80
2022/10/19 06:14:14;;;;;;;19.70;9.00;;;;;;;11.44;68.01;99457.26;103055;1296;107619;-80
2022/10/19 06:16:47;;;;;;;20.30;9.20;;;;;;;11.45;68.00;99460.27;103041;1304;98000;-80
2022/10/19 06:19:16;;;;;;;19.60;9.00;;;;;;;11.44;67.99;99459.80;103153;1296;97900;-82
2022/10/19 06:21:45;;;;;;;20.20;9.70;;;;;;;11.46;68.11;99458.77;103160;1296;111262;-81
2022/10/19 06:24:14;;;;;;;19.20;8.90;;;;;;;11.50;68.29;99455.50;103103;1304;95319;-77
2022/10/19 06:26:41;;;;;;;18.30;9.00;;;;;;;11.52;68.23;99453.73;103012;1300;107683;-80
2022/10/19 06:29:10;;;;;;;23.30;9.70;;;;;;;11.55;68.32;99458.01;103104;1296;97886;-79
2022/10/19 06:31:38;;;;;;;19.30;8.80;;;;;;;11.53;68.25;99466.08;103008;1304;97963;-79
2022/10/19 06:34:06;;;;;;;19.60;9.20;;;;;;;11.51;68.19;99465.17;103116;1302;111186;-79
2022/10/19 06:36:34;;;;;;;20.80;9.20;;;;;;;11.50;68.35;99466.17;103131;1297;95214;-79
2022/10/19 06:39:03;;;;;;;17.70;8.40;;;;;;;11.47;68.21;99467.20;103171;1304;107541;-80
2022/10/19 06:41:33;;;;;;;19.40;8.80;;;;;;;11.49;68.26;99465.85;103089;1304;95278;-80
2022/10/19 06:44:00;;;;;;;15.70;7.70;;;;;;;11.51;68.32;99471.02;103133;1296;97980;-80
2022/10/19 06:46:28;;;;;;;19.20;9.60;;;;;;;11.55;68.37;99470.06;103103;1296;110043;-80
2022/10/19 06:49:00;;;;;;;16.20;8.00;;;;;;;11.58;68.37;99470.71;103091;1304;97904;-80
2022/10/19 06:51:33;;;;;;;19.70;8.30;;;;;;;11.61;68.26;99471.19;103160;1304;107616;-81
2022/10/19 06:54:02;;;;;;;19.70;7.80;;;;;;;11.65;68.59;99472.93;103183;1304;97785;-82
2022/10/19 06:56:31;;;;;;;18.40;7.60;;;;;;;11.65;68.37;99463.83;103138;1301;97869;-80
2022/10/19 06:58:59;;;;;;;19.20;8.00;;;;;;;11.67;68.50;99465.70;103154;1304;111089;-80
2022/10/19 07:01:30;;;;;;;17.80;7.70;;;;;;;11.69;68.32;99465.66;103054;1296;97958;-80
2022/10/19 07:03:58;;;;;;;18.60;7.70;;;;;;;11.71;68.34;99470.91;103026;1304;107147;-80
2022/10/19 07:06:27;;;;;;;16.80;7.50;;;;;;;11.74;68.32;99475.78;102967;1304;97971;-80
2022/10/19 07:08:55;;;;;;;14.80;6.70;;;;;;;11.80;68.43;99480.60;103183;1304;97874;-82
2022/10/19 07:11:25;;;;;;;15.90;7.40;;;;;;;11.83;68.55;99471.84;103030;1297;109921;-82
2022/10/19 07:13:54;;;;;;;17.00;7.40;;;;;;;11.82;68.33;99473.00;102932;1299;95558;-82
2022/10/19 07:16:24;;;;;;;15.80;6.40;;;;;;;11.80;68.26;99477.23;103057;1303;107559;-83
2022/10/19 07:18:52;;;;;;;18.90;6.40;;;;;;;11.76;68.34;99477.65;103061;1304;96536;-80
2022/10/19 07:21:22;;;;;;;15.20;5.70;;;;;;;11.74;68.29;99475.85;103084;1300;95565;-80
2022/10/19 07:23:50;;;;;;;15.30;5.60;;;;;;;11.70;68.25;99480.88;103132;1299;111102;-80
2022/10/19 07:26:26;;;;;;;18.50;5.70;;;;;;;11.68;68.40;99483.55;103179;1298;97983;-79
2022/10/19 07:28:56;;;;;;;13.80;5.20;;;;;;;11.67;68.28;99481.48;103113;1297;107439;-80
2022/10/19 07:31:27;;;;;;;14.20;5.00;;;;;;;11.67;68.29;99476.31;103121;1296;97989;-80
2022/10/19 07:34:00;;;;;;;15.80;5.00;;;;;;;11.68;68.28;99481.77;103083;1296;95196;-80
2022/10/19 07:36:32;;;;;;;16.10;5.00;;;;;;;11.72;68.22;99486.45;103133;1304;110841;-80
2022/10/19 07:39:04;;;;;;;17.60;5.20;;;;;;;11.81;68.18;99486.02;103165;1303;95119;-79
2022/10/19 07:41:34;;;;;;;12.90;4.40;;;;;;;11.90;68.10;99489.59;103074;1297;107427;-80
2022/10/19 07:44:04;;;;;;;15.60;4.50;;;;;;;11.94;68.11;99480.16;103039;1304;97870;-79
2022/10/19 07:46:35;;;;;;;12.50;4.20;;;;;;;11.96;68.16;99481.58;103072;1298;97993;-81
2022/10/19 07:49:09;;;;;;;14.80;5.40;;;;;;;12.00;68.10;99476.14;102952;1304;110061;-80
2022/10/19 07:51:39;;;;;;;13.10;4.30;;;;;;;12.07;68.05;99477.61;103118;1301;98241;-81
2022/10/19 07:54:07;;;;;;;16.40;4.50;;;;;;;12.14;68.15;99476.76;103115;1297;107652;-80
2022/10/19 07:56:35;;;;;;;13.30;4.50;;;;;;;12.23;68.05;99474.86;103081;1297;97865;-80
2022/10/19 07:59:04;;;;;;;15.50;4.30;;;;;;;12.33;68.04;99471.58;103160;1303;98002;-81
2022/10/19 08:01:43;;;;;;;12.30;4.40;;;;;;;12.44;67.89;99472.81;103100;1297;110758;-80
2022/10/19 08:04:12;;;;;;;13.60;4.20;;;;;;;12.53;67.91;99471.21;103050;1297;95110;-78
2022/10/19 08:06:59;;;;;;;17.30;5.00;;;;;;;12.66;68.01;99471.17;103050;1289;107395;-80
2022/10/19 08:09:27;;;;;;;13.70;4.30;;;;;;;12.75;67.81;99475.48;103062;1299;98003;-81
2022/10/19 08:12:16;;;;;;;18.30;4.70;;;;;;;12.82;67.76;99473.52;103144;1299;95197;-80
2022/10/19 08:14:46;;;;;;;15.00;4.60;;;;;;;12.87;67.74;99470.64;103094;1299;111136;-79
2022/10/19 08:17:16;;;;;;;15.20;4.50;;;;;;;12.89;67.40;99463.77;103121;1305;95366;-80
2022/10/19 08:19:45;;;;;;;18.10;4.90;;;;;;;12.90;67.13;99464.23;102973;1297;107268;-79
2022/10/19 08:22:14;;;;;;;18.40;4.60;;;;;;;12.93;67.49;99459.38;102963;1307;97984;-82
2022/10/19 08:24:42;;;;;;;13.80;4.70;;;;;;;12.99;67.55;99460.54;103082;1298;97913;-80
2022/10/19 08:27:10;;;;;;;14.60;4.30;;;;;;;13.00;67.27;99460.22;102899;1306;111070;-81
2022/10/19 08:29:40;;;;;;;21.70;4.60;;;;;;;13.02;67.04;99458.86;103130;1296;97920;-81
2022/10/19 08:32:07;;;;;;;14.60;4.70;;;;;;;13.02;66.72;99461.73;102903;1300;107476;-80
2022/10/19 08:34:36;;;;;;;13.20;4.30;;;;;;;13.00;67.16;99463.08;103036;1306;98634;-80
2022/10/19 08:37:04;;;;;;;12.90;4.60;;;;;;;13.01;66.34;99465.21;103078;1303;97896;-79
2022/10/19 08:39:54;;;;;;;15.20;4.30;;;;;;;12.96;66.08;99467.30;103136;1302;111119;-80
2022/10/19 08:42:33;;;;;;;14.20;4.80;;;;;;;12.93;66.62;99467.89;103167;1297;98469;-80
2022/10/19 08:45:35;;;;;;;14.20;4.90;;;;;;;12.94;66.58;99463.88;103155;1296;107443;-79
2022/10/19 08:48:20;;;;;;;16.10;4.50;;;;;;;13.02;66.56;99462.10;103084;1300;95248;-80
2022/10/19 08:50:51;;;;;;;12.50;4.30;;;;;;;13.12;66.52;99461.64;103084;1299;96309;-80
2022/10/19 08:53:38;;;;;;;12.50;4.70;;;;;;;13.32;66.54;99461.59;103051;1305;110772;-79
2022/10/19 08:56:20;;;;;;;14.70;4.50;;;;;;;13.53;66.50;99456.18;103085;1297;95463;-80
2022/10/19 08:59:33;;;;;;;11.80;4.20;;;;;;;13.84;66.52;99455.60;103051;1297;107095;-80
2022/10/19 09:02:19;;;;;;;13.70;4.30;;;;;;;14.22;66.58;99451.98;103061;1307;97911;-80
2022/10/19 09:04:55;;;;;;;11.40;4.00;;;;;;;14.70;65.92;99454.30;103089;1303;97984;-80
2022/10/19 09:07:27;;;;;;;12.00;3.70;;;;;;;14.91;65.81;99451.09;103069;1296;110744;-80
2022/10/19 09:10:14;;;;;;;11.40;3.50;;;;;;;14.86;65.48;99444.35;103089;1299;97916;-80
2022/10/19 09:13:13;;;;;;;11.70;3.60;;;;;;;14.81;65.52;99445.05;103068;1299;107083;-81
2022/10/19 09:15:50;;;;;;;11.70;3.50;;;;;;;14.73;65.72;99451.73;103083;1306;97824;-81
2022/10/19 09:18:26;;;;;;;9.40;3.30;;;;;;;14.61;65.61;99457.54;103111;1302;97840;-81
2022/10/19 09:21:25;;;;;;;13.20;3.50;;;;;;;14.47;65.24;99459.24;103047;1296;111188;-81
2022/10/19 09:24:47;;;;;;;5.00;2.60;;;;;;;14.15;64.66;99467.48;103053;1297;95189;-80
2022/10/19 09:27:22;;;;;;;14.00;3.30;;;;;;;13.81;64.72;99470.25;103115;1296;108122;-79
2022/10/19 09:30:02;;;;;;;12.50;3.00;;;;;;;13.63;64.73;99466.45;103088;1296;97888;-80
2022/10/19 09:32:37;;;;;;;7.80;3.00;;;;;;;13.45;64.86;99469.64;103144;1296;97917;-81
2022/10/19 09:35:17;;;;;;;10.90;3.10;;;;;;;13.29;64.96;99474.79;103112;1304;110167;-81
2022/10/19 09:37:50;;;;;;;17.50;3.60;;;;;;;13.15;65.07;99473.88;103174;1297;97950;-79
2022/10/19 09:40:23;;;;;;;13.10;4.00;;;;;;;13.04;65.10;99474.70;103192;1296;107759;-78
2022/10/19 09:42:57;;;;;;;12.00;3.30;;;;;;;12.95;65.00;99469.04;103102;1299;97878;-82
2022/10/19 09:45:50;;;;;;;11.40;3.30;;;;;;;12.86;64.98;99473.27;103091;1303;97976;-80
2022/10/19 09:48:35;;;;;;;15.90;4.70;;;;;;;12.77;64.83;99471.45;103045;1299;110748;-81
2022/10/19 09:51:12;;;;;;;15.20;3.80;;;;;;;12.64;64.75;99470.93;103067;1299;98004;-82
2022/10/19 09:53:48;;;;;;;15.30;4.20;;;;;;;12.54;64.46;99473.12;103081;1299;107571;-82
2022/10/19 09:56:25;;;;;;;18.90;4.70;;;;;;;12.47;64.37;99471.48;102892;1300;98507;-80
2022/10/19 09:58:56;;;;;;;13.80;4.10;;;;;;;12.38;64.39;99471.41;103073;1298;97899;-79
2022/10/19 10:01:42;;;;;;;11.20;4.10;;;;;;;12.33;64.58;99474.64;103104;1307;111283;-79
2022/10/19 10:04:17;;;;;;;12.40;4.20;;;;;;;12.35;64.63;99472.93;103073;1297;95143;-81
2022/10/19 10:06:48;;;;;;;14.50;4.40;;;;;;;12.42;64.67;99467.46;103082;1297;106486;-81
2022/10/19 10:09:21;;;;;;;18.00;5.40;;;;;;;12.48;64.61;99467.14;103083;1299;98011;-80
2022/10/19 10:11:53;;;;;;;15.50;4.60;;;;;;;12.55;64.53;99462.38;103148;1298;98415;-81
2022/10/19 10:14:34;;;;;;;12.20;4.50;;;;;;;12.62;64.37;99466.46;103124;1298;110737;-81
2022/10/19 10:17:07;;;;;;;14.30;5.20;;;;;;;12.69;64.47;99464.74;103103;1297;95218;-82
2022/10/19 10:19:36;;;;;;;14.70;5.50;;;;;;;12.72;64.28;99457.35;103060;1303;107612;-81
2022/10/19 10:22:24;;;;;;;14.10;4.90;;;;;;;12.73;64.17;99457.98;103108;1305;97978;-82
2022/10/19 10:24:55;;;;;;;15.20;4.40;;;;;;;12.74;64.34;99458.47;103125;1302;97984;-80
2022/10/19 10:27:37;;;;;;;13.60;5.30;;;;;;;12.78;64.37;99452.48;103074;1290;110925;-85
2022/10/19 10:30:19;;;;;;;19.30;5.80;;;;;;;12.79;64.20;99449.23;103083;1297;97882;-83
2022/10/19 10:32:51;;;;;;;14.70;4.90;;;;;;;12.78;64.42;99448.94;103009;1304;107159;-81
2022/10/19 10:35:34;;;;;;;14.40;4.90;;;;;;;12.76;64.09;99457.63;103044;1304;98028;-80
2022/10/19 10:38:14;;;;;;;13.60;5.30;;;;;;;12.69;64.28;99452.64;103073;1298;97876;-80
2022/10/19 10:40:50;;;;;;;16.10;4.70;;;;;;;12.71;64.38;99448.05;103065;1299;111102;-80
2022/10/19 10:43:27;;;;;;;18.10;4.50;;;;;;;12.74;64.35;99445.29;103081;1304;97965;-80
2022/10/19 10:46:13;;;;;;;13.30;3.70;;;;;;;12.81;64.41;99448.31;103161;1301;106451;-79
2022/10/19 10:48:51;;;;;;;11.10;3.90;;;;;;;12.84;63.98;99449.16;103075;1304;97911;-79
2022/10/19 10:51:25;;;;;;;14.30;3.90;;;;;;;12.80;63.49;99451.05;103171;1304;97976;-80
2022/10/19 10:54:20;;;;;;;11.00;3.80;;;;;;;12.78;63.41;99440.70;103070;1304;111252;-79
2022/10/19 10:57:12;;;;;;;11.50;3.60;;;;;;;12.77;63.53;99441.91;103064;1299;97878;-81
2022/10/19 11:00:06;;;;;;;11.20;4.40;;;;;;;12.71;63.49;99434.30;103049;1296;107496;-81
2022/10/19 11:03:07;;;;;;;13.00;4.10;;;;;;;12.67;63.62;99431.55;103088;1304;97935;-81
2022/10/19 11:05:44;;;;;;;10.40;3.90;;;;;;;12.64;63.42;99436.94;103084;1299;97990;-80
2022/10/19 11:08:37;;;;;;;13.40;3.80;;;;;;;12.59;63.04;99437.33;103066;1303;111046;-81
2022/10/19 11:11:21;;;;;;;13.10;3.50;;;;;;;12.52;63.26;99437.49;103103;1299;97923;-80
2022/10/19 11:14:27;;;;;;;;;;;;;;;12.50;63.45;99434.08;103068;1297;106441;-81
2022/10/19 11:17:06;;;;;;;10.60;3.70;;;;;;;12.46;63.18;99437.90;102359;1313;98658;-81
2022/10/19 11:19:44;;;;;;;10.30;2.90;;;;;;;12.44;63.05;99434.73;102367;1306;97943;-80
2022/10/19 11:22:22;;;;;;;7.90;3.60;;;;;;;12.38;62.31;99433.39;102778;1308;111643;-80
2022/10/19 11:25:14;;;;;;;13.40;3.00;;;;;;;12.35;62.90;99427.05;103085;1303;97881;-81
2022/10/19 11:27:45;;;;;;;9.90;3.40;;;;;;;12.35;62.85;99426.85;103032;1303;108571;-81
2022/10/19 11:30:18;;;;;;;9.50;3.50;;;;;;;12.36;62.66;99423.05;103140;1296;98441;-81
2022/10/19 11:33:05;;;;;;;;;;;;;;;12.35;62.73;99423.83;103223;1303;96965;-82
2022/10/19 11:35:52;;;;;;;7.40;2.80;;;;;;;12.34;62.91;99416.77;103094;1304;111174;-80
2022/10/19 11:38:41;;;;;;;9.20;3.10;;;;;;;12.40;62.74;99410.88;103157;1303;97878;-83
2022/10/19 11:41:50;;;;;;;5.70;2.40;;;;;;;12.43;62.39;99415.45;103162;1304;107638;-84
2022/10/19 11:44:37;;;;;;;11.70;3.30;;;;;;;12.60;62.44;99410.02;103104;1302;97926;-81
2022/10/19 11:47:20;;;;;;;13.10;4.10;;;;;;;12.88;62.02;99411.13;103160;1305;95248;-81
2022/10/19 11:50:06;;;;;;;8.00;2.80;;;;;;;13.05;62.24;99409.32;103170;1298;109533;-80